sensor_id;sensor_type;location;lat;lon;timestamp;P1;durP1;ratioP1;P2;durP2;ratioP2
44564;SDS011;30275;51.822;-0.326;2022-10-15T00:00:44;26.00;;;14.00;;
44564;SDS011;30275;51.822;-0.326;2022-10-15T00:03:10;28.73;;;13.30;;
44564;SDS011;30275;51.822;-0.326;2022-10-15T00:05:36;27.70;;;13.07;;
44564;SDS011;30275;51.822;-0.326;2022-10-15T00:08:02;28.20;;;12.82;;
44564;SDS011;30275;51.822;-0.326;2022-10-15T00:10:28;25.95;;;12.20;;
44564;SDS011;30275;51.822;-0.326;2022-10-15T00:12:54;29.20;;;13.55;;
44564;SDS011;30275;51.822;-0.326;2022-10-15T00:15:20;24.50;;;13.05;;
44564;SDS011;30275;51.822;-0.326;2022-10-15T00:17:46;34.30;;;13.82;;
44564;SDS011;30275;51.822;-0.326;2022-10-15T00:20:11;32.40;;;14.02;;
44564;SDS011;30275;51.822;-0.326;2022-10-15T00:22:38;26.55;;;12.75;;
44564;SDS011;30275;51.822;-0.326;2022-10-15T00:25:03;28.77;;;13.88;;
44564;SDS011;30275;51.822;-0.326;2022-10-15T00:27:30;32.10;;;13.93;;
44564;SDS011;30275;51.822;-0.326;2022-10-15T00:29:55;35.45;;;14.93;;
44564;SDS011;30275;51.822;-0.326;2022-10-15T00:32:24;29.38;;;14.43;;
44564;SDS011;30275;51.822;-0.326;2022-10-15T00:34:50;31.17;;;14.10;;
44564;SDS011;30275;51.822;-0.326;2022-10-15T00:37:15;30.40;;;14.15;;
44564;SDS011;30275;51.822;-0.326;2022-10-15T00:39:41;30.23;;;15.20;;
44564;SDS011;30275;51.822;-0.326;2022-10-15T00:42:08;32.47;;;14.60;;
44564;SDS011;30275;51.822;-0.326;2022-10-15T00:44:48;30.23;;;14.43;;
44564;SDS011;30275;51.822;-0.326;2022-10-15T00:55:23;25.10;;;12.18;;
44564;SDS011;30275;51.822;-0.326;2022-10-15T00:57:53;22.45;;;11.02;;
44564;SDS011;30275;51.822;-0.326;2022-10-15T01:00:20;21.73;;;10.70;;
44564;SDS011;30275;51.822;-0.326;2022-10-15T01:02:46;18.08;;;11.02;;
44564;SDS011;30275;51.822;-0.326;2022-10-15T01:05:12;23.80;;;11.18;;
44564;SDS011;30275;51.822;-0.326;2022-10-15T01:07:40;21.58;;;11.45;;
44564;SDS011;30275;51.822;-0.326;2022-10-15T01:10:05;26.38;;;12.85;;
44564;SDS011;30275;51.822;-0.326;2022-10-15T01:24:22;24.88;;;12.68;;
44564;SDS011;30275;51.822;-0.326;2022-10-15T01:33:03;28.02;;;13.75;;
44564;SDS011;30275;51.822;-0.326;2022-10-15T01:38:29;31.02;;;14.45;;
44564;SDS011;30275;51.822;-0.326;2022-10-15T01:43:58;30.35;;;14.82;;
44564;SDS011;30275;51.822;-0.326;2022-10-15T01:46:34;34.28;;;15.30;;
44564;SDS011;30275;51.822;-0.326;2022-10-15T01:49:01;26.23;;;14.02;;
44564;SDS011;30275;51.822;-0.326;2022-10-15T01:51:29;29.35;;;14.43;;
44564;SDS011;30275;51.822;-0.326;2022-10-15T01:53:58;28.55;;;14.15;;
44564;SDS011;30275;51.822;-0.326;2022-10-15T01:56:24;23.85;;;12.88;;
44564;SDS011;30275;51.822;-0.326;2022-10-15T01:58:51;26.80;;;12.13;;
44564;SDS011;30275;51.822;-0.326;2022-10-15T02:01:19;21.05;;;11.85;;
44564;SDS011;30275;51.822;-0.326;2022-10-15T02:03:46;25.02;;;12.65;;
44564;SDS011;30275;51.822;-0.326;2022-10-15T02:08:55;31.10;;;14.57;;
44564;SDS011;30275;51.822;-0.326;2022-10-15T02:11:26;28.70;;;14.18;;
44564;SDS011;30275;51.822;-0.326;2022-10-15T02:16:42;29.63;;;13.70;;
44564;SDS011;30275;51.822;-0.326;2022-10-15T02:19:20;30.40;;;14.18;;
44564;SDS011;30275;51.822;-0.326;2022-10-15T02:24:27;24.23;;;11.68;;
44564;SDS011;30275;51.822;-0.326;2022-10-15T02:26:59;26.42;;;12.38;;
44564;SDS011;30275;51.822;-0.326;2022-10-15T02:29:27;22.05;;;10.32;;
44564;SDS011;30275;51.822;-0.326;2022-10-15T02:31:57;22.50;;;9.88;;
44564;SDS011;30275;51.822;-0.326;2022-10-15T02:34:24;26.05;;;11.13;;
44564;SDS011;30275;51.822;-0.326;2022-10-15T02:36:53;19.92;;;10.25;;
44564;SDS011;30275;51.822;-0.326;2022-10-15T02:39:25;22.33;;;10.32;;
44564;SDS011;30275;51.822;-0.326;2022-10-15T02:41:52;23.67;;;10.27;;
44564;SDS011;30275;51.822;-0.326;2022-10-15T02:44:18;27.95;;;10.85;;
44564;SDS011;30275;51.822;-0.326;2022-10-15T02:46:44;29.05;;;12.73;;
44564;SDS011;30275;51.822;-0.326;2022-10-15T02:49:09;24.40;;;11.93;;
44564;SDS011;30275;51.822;-0.326;2022-10-15T02:51:35;28.05;;;12.70;;
44564;SDS011;30275;51.822;-0.326;2022-10-15T02:54:01;24.13;;;12.13;;
44564;SDS011;30275;51.822;-0.326;2022-10-15T02:56:28;26.02;;;10.63;;
44564;SDS011;30275;51.822;-0.326;2022-10-15T02:58:54;30.15;;;12.35;;
44564;SDS011;30275;51.822;-0.326;2022-10-15T03:01:19;29.35;;;12.45;;
44564;SDS011;30275;51.822;-0.326;2022-10-15T03:03:45;29.77;;;12.50;;
44564;SDS011;30275;51.822;-0.326;2022-10-15T03:06:11;27.08;;;13.45;;
44564;SDS011;30275;51.822;-0.326;2022-10-15T03:08:36;28.30;;;12.05;;
44564;SDS011;30275;51.822;-0.326;2022-10-15T03:11:02;33.33;;;13.10;;
44564;SDS011;30275;51.822;-0.326;2022-10-15T03:13:28;25.23;;;11.35;;
44564;SDS011;30275;51.822;-0.326;2022-10-15T03:15:54;30.70;;;12.10;;
44564;SDS011;30275;51.822;-0.326;2022-10-15T03:18:20;25.58;;;12.45;;
44564;SDS011;30275;51.822;-0.326;2022-10-15T03:20:53;26.92;;;12.63;;
44564;SDS011;30275;51.822;-0.326;2022-10-15T03:23:19;29.10;;;13.02;;
44564;SDS011;30275;51.822;-0.326;2022-10-15T03:25:45;30.98;;;13.57;;
44564;SDS011;30275;51.822;-0.326;2022-10-15T03:28:11;27.67;;;12.70;;
44564;SDS011;30275;51.822;-0.326;2022-10-15T03:30:36;34.85;;;13.73;;
44564;SDS011;30275;51.822;-0.326;2022-10-15T03:33:02;29.00;;;13.90;;
44564;SDS011;30275;51.822;-0.326;2022-10-15T03:35:28;34.28;;;14.00;;
44564;SDS011;30275;51.822;-0.326;2022-10-15T03:37:53;37.10;;;14.60;;
44564;SDS011;30275;51.822;-0.326;2022-10-15T03:40:19;36.55;;;14.93;;
44564;SDS011;30275;51.822;-0.326;2022-10-15T03:42:48;28.20;;;13.73;;
44564;SDS011;30275;51.822;-0.326;2022-10-15T03:45:18;33.03;;;15.40;;
44564;SDS011;30275;51.822;-0.326;2022-10-15T03:47:44;29.48;;;14.05;;
44564;SDS011;30275;51.822;-0.326;2022-10-15T03:50:10;36.22;;;15.02;;
44564;SDS011;30275;51.822;-0.326;2022-10-15T03:52:36;35.28;;;14.68;;
44564;SDS011;30275;51.822;-0.326;2022-10-15T03:55:02;37.45;;;16.92;;
44564;SDS011;30275;51.822;-0.326;2022-10-15T03:57:28;33.40;;;15.52;;
44564;SDS011;30275;51.822;-0.326;2022-10-15T03:59:54;42.30;;;15.68;;
44564;SDS011;30275;51.822;-0.326;2022-10-15T04:02:20;39.17;;;16.20;;
44564;SDS011;30275;51.822;-0.326;2022-10-15T04:04:45;38.38;;;16.85;;
44564;SDS011;30275;51.822;-0.326;2022-10-15T04:07:11;36.95;;;16.23;;
44564;SDS011;30275;51.822;-0.326;2022-10-15T04:09:36;36.30;;;15.50;;
44564;SDS011;30275;51.822;-0.326;2022-10-15T04:12:02;32.67;;;15.95;;
44564;SDS011;30275;51.822;-0.326;2022-10-15T04:14:28;38.10;;;16.13;;
44564;SDS011;30275;51.822;-0.326;2022-10-15T04:16:54;31.80;;;15.07;;
44564;SDS011;30275;51.822;-0.326;2022-10-15T04:19:22;35.72;;;16.42;;
44564;SDS011;30275;51.822;-0.326;2022-10-15T04:21:48;36.25;;;16.27;;
44564;SDS011;30275;51.822;-0.326;2022-10-15T04:24:14;29.40;;;15.15;;
44564;SDS011;30275;51.822;-0.326;2022-10-15T04:26:39;37.00;;;16.52;;
44564;SDS011;30275;51.822;-0.326;2022-10-15T04:29:05;33.60;;;15.52;;
44564;SDS011;30275;51.822;-0.326;2022-10-15T04:31:30;33.22;;;16.13;;
44564;SDS011;30275;51.822;-0.326;2022-10-15T04:33:56;32.00;;;16.52;;
44564;SDS011;30275;51.822;-0.326;2022-10-15T04:36:22;32.65;;;15.43;;
44564;SDS011;30275;51.822;-0.326;2022-10-15T04:38:47;29.38;;;15.73;;
44564;SDS011;30275;51.822;-0.326;2022-10-15T04:41:13;26.65;;;14.98;;
44564;SDS011;30275;51.822;-0.326;2022-10-15T04:43:38;29.48;;;15.65;;
44564;SDS011;30275;51.822;-0.326;2022-10-15T04:46:05;28.50;;;15.00;;
44564;SDS011;30275;51.822;-0.326;2022-10-15T04:48:32;28.10;;;14.68;;
44564;SDS011;30275;51.822;-0.326;2022-10-15T04:51:12;30.30;;;13.80;;
44564;SDS011;30275;51.822;-0.326;2022-10-15T04:53:42;27.05;;;15.30;;
44564;SDS011;30275;51.822;-0.326;2022-10-15T04:56:12;29.75;;;15.85;;
44564;SDS011;30275;51.822;-0.326;2022-10-15T04:58:41;24.95;;;13.70;;
44564;SDS011;30275;51.822;-0.326;2022-10-15T05:01:08;20.65;;;12.15;;
44564;SDS011;30275;51.822;-0.326;2022-10-15T05:03:38;25.30;;;12.90;;
44564;SDS011;30275;51.822;-0.326;2022-10-15T05:06:06;24.35;;;13.38;;
44564;SDS011;30275;51.822;-0.326;2022-10-15T05:08:34;22.75;;;13.38;;
44564;SDS011;30275;51.822;-0.326;2022-10-15T05:11:01;24.25;;;13.13;;
44564;SDS011;30275;51.822;-0.326;2022-10-15T05:13:30;22.52;;;12.32;;
44564;SDS011;30275;51.822;-0.326;2022-10-15T05:15:56;26.50;;;12.93;;
44564;SDS011;30275;51.822;-0.326;2022-10-15T05:18:32;23.60;;;12.55;;
44564;SDS011;30275;51.822;-0.326;2022-10-15T05:21:00;24.40;;;12.63;;
44564;SDS011;30275;51.822;-0.326;2022-10-15T05:23:26;21.60;;;12.45;;
44564;SDS011;30275;51.822;-0.326;2022-10-15T05:25:51;21.90;;;12.98;;
44564;SDS011;30275;51.822;-0.326;2022-10-15T05:28:17;23.15;;;11.10;;
44564;SDS011;30275;51.822;-0.326;2022-10-15T05:30:43;24.88;;;12.00;;
44564;SDS011;30275;51.822;-0.326;2022-10-15T05:33:09;21.13;;;11.50;;
44564;SDS011;30275;51.822;-0.326;2022-10-15T05:35:35;21.40;;;11.95;;
44564;SDS011;30275;51.822;-0.326;2022-10-15T05:38:01;20.60;;;11.02;;
44564;SDS011;30275;51.822;-0.326;2022-10-15T05:40:28;19.25;;;10.45;;
44564;SDS011;30275;51.822;-0.326;2022-10-15T05:42:54;21.50;;;10.60;;
44564;SDS011;30275;51.822;-0.326;2022-10-15T05:45:20;24.98;;;10.73;;
44564;SDS011;30275;51.822;-0.326;2022-10-15T05:47:46;23.35;;;11.68;;
44564;SDS011;30275;51.822;-0.326;2022-10-15T05:50:12;20.15;;;10.45;;
44564;SDS011;30275;51.822;-0.326;2022-10-15T05:52:38;19.77;;;11.48;;
44564;SDS011;30275;51.822;-0.326;2022-10-15T05:55:04;25.17;;;12.07;;
44564;SDS011;30275;51.822;-0.326;2022-10-15T05:57:29;18.25;;;11.70;;
44564;SDS011;30275;51.822;-0.326;2022-10-15T05:59:55;20.60;;;11.02;;
44564;SDS011;30275;51.822;-0.326;2022-10-15T06:02:21;18.63;;;11.15;;
44564;SDS011;30275;51.822;-0.326;2022-10-15T06:04:47;24.00;;;11.05;;
44564;SDS011;30275;51.822;-0.326;2022-10-15T06:07:13;19.70;;;10.73;;
44564;SDS011;30275;51.822;-0.326;2022-10-15T06:09:39;22.23;;;11.70;;
44564;SDS011;30275;51.822;-0.326;2022-10-15T06:12:05;22.30;;;12.55;;
44564;SDS011;30275;51.822;-0.326;2022-10-15T06:14:30;30.23;;;12.60;;
44564;SDS011;30275;51.822;-0.326;2022-10-15T06:16:56;26.13;;;12.32;;
44564;SDS011;30275;51.822;-0.326;2022-10-15T06:19:22;20.63;;;12.02;;
44564;SDS011;30275;51.822;-0.326;2022-10-15T06:21:47;21.90;;;12.10;;
44564;SDS011;30275;51.822;-0.326;2022-10-15T06:24:13;25.00;;;11.93;;
44564;SDS011;30275;51.822;-0.326;2022-10-15T06:26:39;20.80;;;11.00;;
44564;SDS011;30275;51.822;-0.326;2022-10-15T06:29:04;25.00;;;11.82;;
44564;SDS011;30275;51.822;-0.326;2022-10-15T06:31:30;26.27;;;12.75;;
44564;SDS011;30275;51.822;-0.326;2022-10-15T06:33:56;27.80;;;13.32;;
44564;SDS011;30275;51.822;-0.326;2022-10-15T06:36:21;28.88;;;13.40;;
44564;SDS011;30275;51.822;-0.326;2022-10-15T06:38:49;31.80;;;13.10;;
44564;SDS011;30275;51.822;-0.326;2022-10-15T06:41:15;27.80;;;13.10;;
44564;SDS011;30275;51.822;-0.326;2022-10-15T06:43:41;25.23;;;12.95;;
44564;SDS011;30275;51.822;-0.326;2022-10-15T06:46:07;25.02;;;12.73;;
44564;SDS011;30275;51.822;-0.326;2022-10-15T06:48:33;24.33;;;12.20;;
44564;SDS011;30275;51.822;-0.326;2022-10-15T06:50:59;21.63;;;12.60;;
44564;SDS011;30275;51.822;-0.326;2022-10-15T06:53:25;22.92;;;10.95;;
44564;SDS011;30275;51.822;-0.326;2022-10-15T06:55:55;22.90;;;11.55;;
44564;SDS011;30275;51.822;-0.326;2022-10-15T06:58:22;23.10;;;11.63;;
44564;SDS011;30275;51.822;-0.326;2022-10-15T07:00:47;20.20;;;11.27;;
44564;SDS011;30275;51.822;-0.326;2022-10-15T07:03:13;27.83;;;11.93;;
44564;SDS011;30275;51.822;-0.326;2022-10-15T07:05:54;20.92;;;11.68;;
44564;SDS011;30275;51.822;-0.326;2022-10-15T07:08:20;15.55;;;10.43;;
44564;SDS011;30275;51.822;-0.326;2022-10-15T07:10:45;22.65;;;10.57;;
44564;SDS011;30275;51.822;-0.326;2022-10-15T07:13:11;20.10;;;10.80;;
44564;SDS011;30275;51.822;-0.326;2022-10-15T07:15:37;18.50;;;9.82;;
44564;SDS011;30275;51.822;-0.326;2022-10-15T07:18:02;20.77;;;9.98;;
44564;SDS011;30275;51.822;-0.326;2022-10-15T07:20:29;19.63;;;10.57;;
44564;SDS011;30275;51.822;-0.326;2022-10-15T07:22:57;19.73;;;9.20;;
44564;SDS011;30275;51.822;-0.326;2022-10-15T07:25:24;15.98;;;9.07;;
44564;SDS011;30275;51.822;-0.326;2022-10-15T07:27:50;15.77;;;7.82;;
44564;SDS011;30275;51.822;-0.326;2022-10-15T07:30:16;11.65;;;7.00;;
44564;SDS011;30275;51.822;-0.326;2022-10-15T07:32:42;13.45;;;6.72;;
44564;SDS011;30275;51.822;-0.326;2022-10-15T07:35:08;11.80;;;6.35;;
44564;SDS011;30275;51.822;-0.326;2022-10-15T07:37:34;13.82;;;5.15;;
44564;SDS011;30275;51.822;-0.326;2022-10-15T07:39:59;7.55;;;5.38;;
44564;SDS011;30275;51.822;-0.326;2022-10-15T07:42:25;7.30;;;4.57;;
44564;SDS011;30275;51.822;-0.326;2022-10-15T07:44:51;11.65;;;4.65;;
44564;SDS011;30275;51.822;-0.326;2022-10-15T07:47:17;10.43;;;4.18;;
44564;SDS011;30275;51.822;-0.326;2022-10-15T07:49:43;7.93;;;3.42;;
44564;SDS011;30275;51.822;-0.326;2022-10-15T07:52:09;8.30;;;3.88;;
44564;SDS011;30275;51.822;-0.326;2022-10-15T07:54:34;9.07;;;3.92;;
44564;SDS011;30275;51.822;-0.326;2022-10-15T07:57:00;6.35;;;3.22;;
44564;SDS011;30275;51.822;-0.326;2022-10-15T07:59:26;8.30;;;3.65;;
44564;SDS011;30275;51.822;-0.326;2022-10-15T08:01:52;8.32;;;3.53;;
44564;SDS011;30275;51.822;-0.326;2022-10-15T08:04:17;5.50;;;3.47;;
44564;SDS011;30275;51.822;-0.326;2022-10-15T08:06:44;9.07;;;3.47;;
44564;SDS011;30275;51.822;-0.326;2022-10-15T08:09:10;6.07;;;3.05;;
44564;SDS011;30275;51.822;-0.326;2022-10-15T08:11:36;6.85;;;3.10;;
44564;SDS011;30275;51.822;-0.326;2022-10-15T08:14:01;3.95;;;3.20;;
44564;SDS011;30275;51.822;-0.326;2022-10-15T08:16:28;5.03;;;2.58;;
44564;SDS011;30275;51.822;-0.326;2022-10-15T08:18:53;5.93;;;3.00;;
44564;SDS011;30275;51.822;-0.326;2022-10-15T08:21:19;3.00;;;2.40;;
44564;SDS011;30275;51.822;-0.326;2022-10-15T08:23:44;6.63;;;2.58;;
44564;SDS011;30275;51.822;-0.326;2022-10-15T08:26:10;2.92;;;1.92;;
44564;SDS011;30275;51.822;-0.326;2022-10-15T08:28:36;2.83;;;1.60;;
44564;SDS011;30275;51.822;-0.326;2022-10-15T08:31:02;5.32;;;1.98;;
44564;SDS011;30275;51.822;-0.326;2022-10-15T08:33:28;2.95;;;1.58;;
44564;SDS011;30275;51.822;-0.326;2022-10-15T08:35:54;2.95;;;1.73;;
44564;SDS011;30275;51.822;-0.326;2022-10-15T08:38:19;4.57;;;1.45;;
44564;SDS011;30275;51.822;-0.326;2022-10-15T08:40:49;3.63;;;1.40;;
44564;SDS011;30275;51.822;-0.326;2022-10-15T08:43:22;5.00;;;1.27;;
44564;SDS011;30275;51.822;-0.326;2022-10-15T08:45:54;2.95;;;1.60;;
44564;SDS011;30275;51.822;-0.326;2022-10-15T08:48:32;5.75;;;1.80;;
44564;SDS011;30275;51.822;-0.326;2022-10-15T08:51:12;3.28;;;1.40;;
44564;SDS011;30275;51.822;-0.326;2022-10-15T08:53:44;2.63;;;1.33;;
44564;SDS011;30275;51.822;-0.326;2022-10-15T08:56:16;3.40;;;1.42;;
44564;SDS011;30275;51.822;-0.326;2022-10-15T09:01:36;2.38;;;1.23;;
44564;SDS011;30275;51.822;-0.326;2022-10-15T09:06:39;2.53;;;1.05;;
44564;SDS011;30275;51.822;-0.326;2022-10-15T09:11:50;3.40;;;1.40;;
44564;SDS011;30275;51.822;-0.326;2022-10-15T09:14:37;1.65;;;0.90;;
44564;SDS011;30275;51.822;-0.326;2022-10-15T09:17:12;1.80;;;1.05;;
44564;SDS011;30275;51.822;-0.326;2022-10-15T09:19:56;1.52;;;1.10;;
44564;SDS011;30275;51.822;-0.326;2022-10-15T09:22:26;2.10;;;0.77;;
44564;SDS011;30275;51.822;-0.326;2022-10-15T09:24:54;1.63;;;1.08;;
44564;SDS011;30275;51.822;-0.326;2022-10-15T09:27:31;3.95;;;1.13;;
44564;SDS011;30275;51.822;-0.326;2022-10-15T09:30:22;2.28;;;1.20;;
44564;SDS011;30275;51.822;-0.326;2022-10-15T09:33:17;2.30;;;0.90;;
44564;SDS011;30275;51.822;-0.326;2022-10-15T09:36:10;2.15;;;0.80;;
44564;SDS011;30275;51.822;-0.326;2022-10-15T09:44:17;1.40;;;0.80;;
44564;SDS011;30275;51.822;-0.326;2022-10-15T09:46:47;2.92;;;0.98;;
44564;SDS011;30275;51.822;-0.326;2022-10-15T09:49:19;1.17;;;0.75;;
44564;SDS011;30275;51.822;-0.326;2022-10-15T09:54:39;2.25;;;1.20;;
44564;SDS011;30275;51.822;-0.326;2022-10-15T09:57:18;3.25;;;0.80;;
44564;SDS011;30275;51.822;-0.326;2022-10-15T09:59:53;2.28;;;1.00;;
44564;SDS011;30275;51.822;-0.326;2022-10-15T10:02:22;1.80;;;0.80;;
44564;SDS011;30275;51.822;-0.326;2022-10-15T10:04:49;1.65;;;0.60;;
44564;SDS011;30275;51.822;-0.326;2022-10-15T10:10:23;1.20;;;1.00;;
44564;SDS011;30275;51.822;-0.326;2022-10-15T10:12:51;1.38;;;0.68;;
44564;SDS011;30275;51.822;-0.326;2022-10-15T10:15:32;0.95;;;0.70;;
44564;SDS011;30275;51.822;-0.326;2022-10-15T10:18:00;4.55;;;0.75;;
44564;SDS011;30275;51.822;-0.326;2022-10-15T10:20:27;1.48;;;0.80;;
44564;SDS011;30275;51.822;-0.326;2022-10-15T10:22:55;5.30;;;1.17;;
44564;SDS011;30275;51.822;-0.326;2022-10-15T10:30:38;2.33;;;0.73;;
44564;SDS011;30275;51.822;-0.326;2022-10-15T10:33:09;1.67;;;0.70;;
44564;SDS011;30275;51.822;-0.326;2022-10-15T10:35:46;1.60;;;1.15;;
44564;SDS011;30275;51.822;-0.326;2022-10-15T10:38:18;0.88;;;0.60;;
44564;SDS011;30275;51.822;-0.326;2022-10-15T10:40:49;2.72;;;0.80;;
44564;SDS011;30275;51.822;-0.326;2022-10-15T10:43:28;1.02;;;0.50;;
44564;SDS011;30275;51.822;-0.326;2022-10-15T10:45:56;0.95;;;0.75;;
44564;SDS011;30275;51.822;-0.326;2022-10-15T10:48:26;2.35;;;1.00;;
44564;SDS011;30275;51.822;-0.326;2022-10-15T10:51:02;3.13;;;0.70;;
44564;SDS011;30275;51.822;-0.326;2022-10-15T10:53:32;1.05;;;0.60;;
44564;SDS011;30275;51.822;-0.326;2022-10-15T10:56:01;1.85;;;0.88;;
44564;SDS011;30275;51.822;-0.326;2022-10-15T10:58:31;3.10;;;0.93;;
44564;SDS011;30275;51.822;-0.326;2022-10-15T11:01:01;1.35;;;0.90;;
44564;SDS011;30275;51.822;-0.326;2022-10-15T11:03:37;3.22;;;0.90;;
44564;SDS011;30275;51.822;-0.326;2022-10-15T11:11:34;2.92;;;0.80;;
44564;SDS011;30275;51.822;-0.326;2022-10-15T11:19:33;1.83;;;0.80;;
44564;SDS011;30275;51.822;-0.326;2022-10-15T11:25:18;2.17;;;0.95;;
44564;SDS011;30275;51.822;-0.326;2022-10-15T11:30:55;1.45;;;0.60;;
44564;SDS011;30275;51.822;-0.326;2022-10-15T11:33:47;1.45;;;0.55;;
44564;SDS011;30275;51.822;-0.326;2022-10-15T11:39:28;0.40;;;0.40;;
44564;SDS011;30275;51.822;-0.326;2022-10-15T11:47:46;1.45;;;0.65;;
44564;SDS011;30275;51.822;-0.326;2022-10-15T11:50:21;3.30;;;0.70;;
44564;SDS011;30275;51.822;-0.326;2022-10-15T11:55:31;2.22;;;0.70;;
44564;SDS011;30275;51.822;-0.326;2022-10-15T11:58:10;0.98;;;0.55;;
44564;SDS011;30275;51.822;-0.326;2022-10-15T12:00:45;1.88;;;0.70;;
44564;SDS011;30275;51.822;-0.326;2022-10-15T12:03:17;3.55;;;0.80;;
44564;SDS011;30275;51.822;-0.326;2022-10-15T12:06:21;3.65;;;0.93;;
44564;SDS011;30275;51.822;-0.326;2022-10-15T12:08:41;2.85;;;0.63;;
44564;SDS011;30275;51.822;-0.326;2022-10-15T12:22:32;4.25;;;0.88;;
44564;SDS011;30275;51.822;-0.326;2022-10-15T12:24:59;3.38;;;1.20;;
44564;SDS011;30275;51.822;-0.326;2022-10-15T12:27:29;4.35;;;1.15;;
44564;SDS011;30275;51.822;-0.326;2022-10-15T12:32:38;2.05;;;0.90;;
44564;SDS011;30275;51.822;-0.326;2022-10-15T12:35:17;2.47;;;0.90;;
44564;SDS011;30275;51.822;-0.326;2022-10-15T12:37:46;3.15;;;0.90;;
44564;SDS011;30275;51.822;-0.326;2022-10-15T12:42:45;1.95;;;0.93;;
44564;SDS011;30275;51.822;-0.326;2022-10-15T12:45:23;3.03;;;1.00;;
44564;SDS011;30275;51.822;-0.326;2022-10-15T12:50:28;2.67;;;0.82;;
44564;SDS011;30275;51.822;-0.326;2022-10-15T12:55:40;3.55;;;0.80;;
44564;SDS011;30275;51.822;-0.326;2022-10-15T13:17:19;3.72;;;1.00;;
44564;SDS011;30275;51.822;-0.326;2022-10-15T13:19:47;4.10;;;1.92;;
44564;SDS011;30275;51.822;-0.326;2022-10-15T13:22:24;2.70;;;0.85;;
44564;SDS011;30275;51.822;-0.326;2022-10-15T13:27:25;1.70;;;0.77;;
44564;SDS011;30275;51.822;-0.326;2022-10-15T13:29:54;4.90;;;1.08;;
44564;SDS011;30275;51.822;-0.326;2022-10-15T13:32:32;3.35;;;1.05;;
44564;SDS011;30275;51.822;-0.326;2022-10-15T13:35:08;6.53;;;1.17;;
44564;SDS011;30275;51.822;-0.326;2022-10-15T13:37:36;4.97;;;1.83;;
44564;SDS011;30275;51.822;-0.326;2022-10-15T13:40:04;4.55;;;0.77;;
44564;SDS011;30275;51.822;-0.326;2022-10-15T13:42:31;6.18;;;1.00;;
44564;SDS011;30275;51.822;-0.326;2022-10-15T13:44:58;3.35;;;0.93;;
44564;SDS011;30275;51.822;-0.326;2022-10-15T13:47:40;2.60;;;0.70;;
44564;SDS011;30275;51.822;-0.326;2022-10-15T13:52:46;4.32;;;1.02;;
44564;SDS011;30275;51.822;-0.326;2022-10-15T13:55:46;1.98;;;0.80;;
44564;SDS011;30275;51.822;-0.326;2022-10-15T13:58:16;2.58;;;0.77;;
44564;SDS011;30275;51.822;-0.326;2022-10-15T14:00:47;3.75;;;1.67;;
44564;SDS011;30275;51.822;-0.326;2022-10-15T14:03:16;1.88;;;0.80;;
44564;SDS011;30275;51.822;-0.326;2022-10-15T14:08:31;3.97;;;1.20;;
44564;SDS011;30275;51.822;-0.326;2022-10-15T14:10:58;2.78;;;0.80;;
44564;SDS011;30275;51.822;-0.326;2022-10-15T14:13:24;3.63;;;0.90;;
44564;SDS011;30275;51.822;-0.326;2022-10-15T14:16:09;2.88;;;0.55;;
44564;SDS011;30275;51.822;-0.326;2022-10-15T14:18:52;4.32;;;1.00;;
44564;SDS011;30275;51.822;-0.326;2022-10-15T14:21:22;2.63;;;1.33;;
44564;SDS011;30275;51.822;-0.326;2022-10-15T14:26:37;4.88;;;1.00;;
44564;SDS011;30275;51.822;-0.326;2022-10-15T14:29:03;1.73;;;0.73;;
44564;SDS011;30275;51.822;-0.326;2022-10-15T14:31:36;3.90;;;1.10;;
44564;SDS011;30275;51.822;-0.326;2022-10-15T14:34:23;2.33;;;0.73;;
44564;SDS011;30275;51.822;-0.326;2022-10-15T14:36:52;4.00;;;1.08;;
44564;SDS011;30275;51.822;-0.326;2022-10-15T14:39:25;1.45;;;0.80;;
44564;SDS011;30275;51.822;-0.326;2022-10-15T14:42:02;5.22;;;1.55;;
44564;SDS011;30275;51.822;-0.326;2022-10-15T14:44:49;4.05;;;1.00;;
44564;SDS011;30275;51.822;-0.326;2022-10-15T14:47:23;4.25;;;1.02;;
44564;SDS011;30275;51.822;-0.326;2022-10-15T14:49:54;4.05;;;1.00;;
44564;SDS011;30275;51.822;-0.326;2022-10-15T14:52:23;3.78;;;1.25;;
44564;SDS011;30275;51.822;-0.326;2022-10-15T14:55:13;2.85;;;0.98;;
44564;SDS011;30275;51.822;-0.326;2022-10-15T14:57:48;7.55;;;1.50;;
44564;SDS011;30275;51.822;-0.326;2022-10-15T15:02:53;2.65;;;0.98;;
44564;SDS011;30275;51.822;-0.326;2022-10-15T15:05:22;2.13;;;0.80;;
44564;SDS011;30275;51.822;-0.326;2022-10-15T15:07:48;4.13;;;0.90;;
44564;SDS011;30275;51.822;-0.326;2022-10-15T15:10:14;3.90;;;1.10;;
44564;SDS011;30275;51.822;-0.326;2022-10-15T15:12:42;3.10;;;1.33;;
44564;SDS011;30275;51.822;-0.326;2022-10-15T15:15:14;2.53;;;0.93;;
44564;SDS011;30275;51.822;-0.326;2022-10-15T15:17:41;4.80;;;1.45;;
44564;SDS011;30275;51.822;-0.326;2022-10-15T15:20:07;9.57;;;2.35;;
44564;SDS011;30275;51.822;-0.326;2022-10-15T15:22:34;7.70;;;1.63;;
44564;SDS011;30275;51.822;-0.326;2022-10-15T15:25:01;7.07;;;1.48;;
44564;SDS011;30275;51.822;-0.326;2022-10-15T15:27:31;8.38;;;1.52;;
44564;SDS011;30275;51.822;-0.326;2022-10-15T15:30:02;8.68;;;2.15;;
44564;SDS011;30275;51.822;-0.326;2022-10-15T15:32:32;5.43;;;2.00;;
44564;SDS011;30275;51.822;-0.326;2022-10-15T15:34:58;7.25;;;2.42;;
44564;SDS011;30275;51.822;-0.326;2022-10-15T15:37:25;7.63;;;1.63;;
44564;SDS011;30275;51.822;-0.326;2022-10-15T15:39:51;6.80;;;1.45;;
44564;SDS011;30275;51.822;-0.326;2022-10-15T15:42:20;6.00;;;1.63;;
44564;SDS011;30275;51.822;-0.326;2022-10-15T15:44:48;5.17;;;1.10;;
44564;SDS011;30275;51.822;-0.326;2022-10-15T15:47:14;7.43;;;1.42;;
44564;SDS011;30275;51.822;-0.326;2022-10-15T15:49:40;4.32;;;1.20;;
44564;SDS011;30275;51.822;-0.326;2022-10-15T15:52:07;5.15;;;1.63;;
44564;SDS011;30275;51.822;-0.326;2022-10-15T15:57:04;4.15;;;1.45;;
44564;SDS011;30275;51.822;-0.326;2022-10-15T15:59:30;6.20;;;1.67;;
44564;SDS011;30275;51.822;-0.326;2022-10-15T16:01:56;4.78;;;2.17;;
44564;SDS011;30275;51.822;-0.326;2022-10-15T16:04:21;4.75;;;1.75;;
44564;SDS011;30275;51.822;-0.326;2022-10-15T16:06:47;7.05;;;1.80;;
44564;SDS011;30275;51.822;-0.326;2022-10-15T16:09:16;10.95;;;2.08;;
44564;SDS011;30275;51.822;-0.326;2022-10-15T16:11:43;4.90;;;1.60;;
44564;SDS011;30275;51.822;-0.326;2022-10-15T16:14:09;8.98;;;2.25;;
44564;SDS011;30275;51.822;-0.326;2022-10-15T16:16:35;6.63;;;1.50;;
44564;SDS011;30275;51.822;-0.326;2022-10-15T16:19:01;6.15;;;1.73;;
44564;SDS011;30275;51.822;-0.326;2022-10-15T16:21:27;4.93;;;1.73;;
44564;SDS011;30275;51.822;-0.326;2022-10-15T16:23:53;5.07;;;1.20;;
44564;SDS011;30275;51.822;-0.326;2022-10-15T16:26:19;4.60;;;1.48;;
44564;SDS011;30275;51.822;-0.326;2022-10-15T16:28:44;7.97;;;1.25;;
44564;SDS011;30275;51.822;-0.326;2022-10-15T16:33:49;4.20;;;1.30;;
44564;SDS011;30275;51.822;-0.326;2022-10-15T16:36:15;4.47;;;1.48;;
44564;SDS011;30275;51.822;-0.326;2022-10-15T16:38:42;3.55;;;1.58;;
44564;SDS011;30275;51.822;-0.326;2022-10-15T16:41:08;6.05;;;1.50;;
44564;SDS011;30275;51.822;-0.326;2022-10-15T16:43:35;5.95;;;2.08;;
44564;SDS011;30275;51.822;-0.326;2022-10-15T16:46:01;5.05;;;1.60;;
44564;SDS011;30275;51.822;-0.326;2022-10-15T16:48:28;10.77;;;1.60;;
44564;SDS011;30275;51.822;-0.326;2022-10-15T16:51:05;6.47;;;2.35;;
44564;SDS011;30275;51.822;-0.326;2022-10-15T16:53:33;5.03;;;1.60;;
44564;SDS011;30275;51.822;-0.326;2022-10-15T16:56:03;4.25;;;1.60;;
44564;SDS011;30275;51.822;-0.326;2022-10-15T16:58:31;7.22;;;1.80;;
44564;SDS011;30275;51.822;-0.326;2022-10-15T17:00:58;8.65;;;1.88;;
44564;SDS011;30275;51.822;-0.326;2022-10-15T17:03:24;7.82;;;2.22;;